createdAt,value
2022-10-04T00:00:36.577Z,76.17
2022-10-04T00:01:45.972Z,76.11
2022-10-04T00:02:49.238Z,76.07
2022-10-04T00:04:27.386Z,76.20
2022-10-04T00:05:31.124Z,76.21
2022-10-04T00:06:35.732Z,76.33
2022-10-04T00:07:42.141Z,76.52
2022-10-04T00:08:48.752Z,76.70
2022-10-04T00:10:01.001Z,76.68
2022-10-04T00:11:10.120Z,76.62
2022-10-04T00:12:28.200Z,76.67
2022-10-04T00:13:33.329Z,76.70
2022-10-04T00:14:38.946Z,76.69
2022-10-04T00:15:41.998Z,76.63
2022-10-04T00:16:45.610Z,76.55
2022-10-04T00:18:13.048Z,76.61
2022-10-04T00:19:22.159Z,76.55
2022-10-04T00:20:52.644Z,76.48
2022-10-04T00:21:59.569Z,76.37
2022-10-04T00:23:22.753Z,76.26
2022-10-04T00:24:28.095Z,76.25
2022-10-04T00:25:35.710Z,76.36
2022-10-04T00:26:44.837Z,76.42
2022-10-04T00:28:17.463Z,76.43
2022-10-04T00:29:38.241Z,76.39
2022-10-04T00:30:41.128Z,76.37
2022-10-04T00:32:13.490Z,76.47
2022-10-04T00:33:22.943Z,76.66
2022-10-04T00:34:37.925Z,76.70
2022-10-04T00:35:46.695Z,76.64
2022-10-04T00:36:54.838Z,76.51
2022-10-04T00:38:01.418Z,76.56
2022-10-04T00:39:11.429Z,76.43
2022-10-04T00:40:16.577Z,76.28
2022-10-04T00:41:21.150Z,76.18
2022-10-04T00:42:27.606Z,76.16
2022-10-04T00:43:42.843Z,76.10
2022-10-04T00:45:21.010Z,76.16
2022-10-04T00:46:27.563Z,76.25
2022-10-04T00:47:36.919Z,76.15
2022-10-04T00:48:55.402Z,76.19
2022-10-04T00:50:16.681Z,76.27
2022-10-04T00:51:41.167Z,76.31
2022-10-04T00:52:47.778Z,76.31
2022-10-04T00:54:00.170Z,76.61
2022-10-04T00:55:06.534Z,76.67
2022-10-04T00:56:13.030Z,76.68
2022-10-04T00:57:19.443Z,76.70
2022-10-04T00:58:25.857Z,76.70
2022-10-04T00:59:44.040Z,76.71
2022-10-04T01:00:48.429Z,76.73
2022-10-04T01:01:54.878Z,76.68
2022-10-04T01:03:22.488Z,76.61
2022-10-04T01:04:41.061Z,76.53
2022-10-04T01:05:47.500Z,76.54
2022-10-04T01:06:51.016Z,76.41
2022-10-04T01:07:57.383Z,76.33
2022-10-04T01:09:04.163Z,76.31
2022-10-04T01:10:13.943Z,76.21
2022-10-04T01:11:20.324Z,76.24
2022-10-04T01:12:29.425Z,76.33
2022-10-04T01:13:39.007Z,76.48
2022-10-04T01:14:51.622Z,76.53
2022-10-04T01:16:04.184Z,76.68
2022-10-04T01:17:08.255Z,76.65
2022-10-04T01:18:23.392Z,76.57
2022-10-04T01:19:29.772Z,76.40
2022-10-04T01:20:36.085Z,76.18
2022-10-04T01:21:39.363Z,76.16
2022-10-04T01:22:45.527Z,76.22
2022-10-04T01:23:53.354Z,76.45
2022-10-04T01:24:57.094Z,76.32
2022-10-04T01:26:00.762Z,76.15
2022-10-04T01:27:04.007Z,76.30
2022-10-04T01:28:06.888Z,76.48
2022-10-04T01:29:28.017Z,76.45
2022-10-04T01:30:30.973Z,76.38
2022-10-04T01:31:36.865Z,76.45
2022-10-04T01:32:40.032Z,76.43
2022-10-04T01:33:42.896Z,76.47
2022-10-04T01:34:45.631Z,76.44
2022-10-04T01:35:48.496Z,76.46
2022-10-04T01:36:55.022Z,76.35
2022-10-04T01:37:57.958Z,76.24
2022-10-04T01:39:01.219Z,76.18
2022-10-04T01:40:04.862Z,76.37
2022-10-04T01:41:09.697Z,76.46
2022-10-04T01:42:22.776Z,76.55
2022-10-04T01:43:29.167Z,76.55
2022-10-04T01:44:35.515Z,76.21
2022-10-04T01:45:41.980Z,76.24
2022-10-04T01:46:45.925Z,76.27
2022-10-04T01:47:55.345Z,76.29
2022-10-04T01:49:01.750Z,76.43
2022-10-04T01:50:10.537Z,76.38
2022-10-04T01:51:16.811Z,76.49
2022-10-04T01:52:23.199Z,76.62
2022-10-04T01:53:32.035Z,76.82
2022-10-04T01:54:41.462Z,76.82
2022-10-04T01:55:48.107Z,76.56
2022-10-04T01:56:54.542Z,76.60
2022-10-04T01:58:03.759Z,76.78
2022-10-04T01:59:18.570Z,76.84
2022-10-04T02:00:24.023Z,76.79
2022-10-04T02:01:36.556Z,76.77
2022-10-04T02:02:54.931Z,76.89
2022-10-04T02:04:13.162Z,76.83
2022-10-04T02:05:19.631Z,76.71
2022-10-04T02:06:23.932Z,76.64
2022-10-04T02:07:30.423Z,76.72
2022-10-04T02:08:36.338Z,76.72
2022-10-04T02:09:43.160Z,76.93
2022-10-04T02:10:49.193Z,77.05
2022-10-04T02:11:54.253Z,77.05
2022-10-04T02:12:57.798Z,77.08
2022-10-04T02:14:00.753Z,77.12
2022-10-04T02:15:07.174Z,77.18
2022-10-04T02:16:11.560Z,77.25
2022-10-04T02:17:16.668Z,77.38
2022-10-04T02:18:21.812Z,77.32
2022-10-04T02:19:28.094Z,77.32
2022-10-04T02:20:32.037Z,77.12
2022-10-04T02:21:36.792Z,77.09
2022-10-04T02:22:40.763Z,76.80
2022-10-04T02:23:45.003Z,76.70
2022-10-04T02:24:49.569Z,76.62
2022-10-04T02:25:52.563Z,76.50
2022-10-04T02:26:55.389Z,76.41
2022-10-04T02:27:58.341Z,76.34
2022-10-04T02:29:01.094Z,76.34
2022-10-04T02:30:07.439Z,76.45
2022-10-04T02:31:28.997Z,76.64
2022-10-04T02:32:50.905Z,76.94
2022-10-04T02:33:57.279Z,77.32
2022-10-04T02:35:00.212Z,77.54
2022-10-04T02:36:04.425Z,77.67
2022-10-04T02:37:08.155Z,77.77
2022-10-04T02:38:17.534Z,77.90
2022-10-04T02:39:26.762Z,77.96
2022-10-04T02:40:33.240Z,78.13
2022-10-04T02:42:03.968Z,78.12
2022-10-04T02:43:16.297Z,78.26
2022-10-04T02:44:43.509Z,78.41
2022-10-04T02:45:50.095Z,78.48
2022-10-04T02:47:19.024Z,78.66
2022-10-04T02:48:42.117Z,78.75
2022-10-04T02:49:52.050Z,78.71
2022-10-04T02:50:58.515Z,78.85
2022-10-04T02:52:07.966Z,78.88
2022-10-04T02:53:33.840Z,78.91
2022-10-04T02:54:45.988Z,78.94
2022-10-04T02:55:49.417Z,79.07
2022-10-04T02:56:53.788Z,79.18
2022-10-04T02:57:58.162Z,79.28
2022-10-04T02:59:03.581Z,79.50
2022-10-04T03:00:25.100Z,79.47
2022-10-04T03:01:47.885Z,79.50
2022-10-04T03:03:18.646Z,79.59
2022-10-04T03:05:39.665Z,79.96
2022-10-04T03:06:47.357Z,79.98
2022-10-04T03:07:51.502Z,80.03
2022-10-04T03:08:58.652Z,79.92
2022-10-04T03:10:04.397Z,79.98
2022-10-04T03:11:09.096Z,80.13
2022-10-04T03:12:13.748Z,80.03
2022-10-04T03:13:19.568Z,80.08
2022-10-04T03:14:25.891Z,80.10
2022-10-04T03:15:28.839Z,80.09
2022-10-04T03:17:50.007Z,80.09
2022-10-04T03:18:56.515Z,80.15
2022-10-04T03:19:59.705Z,80.17
2022-10-04T03:21:04.418Z,80.26
2022-10-04T03:22:10.807Z,80.34
2022-10-04T03:23:17.020Z,80.32
2022-10-04T03:24:23.455Z,80.28
2022-10-04T03:25:29.676Z,80.30
2022-10-04T03:26:44.921Z,80.15
2022-10-04T03:27:49.239Z,80.10
2022-10-04T03:28:52.697Z,80.12
2022-10-04T03:29:59.218Z,80.24
2022-10-04T03:31:01.239Z,80.17
2022-10-04T03:32:05.281Z,80.09
2022-10-04T03:33:08.455Z,80.18
2022-10-04T03:34:23.479Z,80.10
2022-10-04T03:35:35.975Z,80.17
2022-10-04T03:36:39.739Z,80.24
2022-10-04T03:37:43.084Z,80.32
2022-10-04T03:38:48.013Z,80.35
2022-10-04T03:39:53.676Z,80.38
2022-10-04T03:40:59.385Z,80.38
2022-10-04T03:42:05.904Z,80.25
2022-10-04T03:43:11.965Z,80.22
2022-10-04T03:44:17.505Z,80.18
2022-10-04T03:45:23.150Z,80.20
2022-10-04T03:46:27.717Z,80.16
2022-10-04T03:47:33.435Z,80.25
2022-10-04T03:48:45.743Z,80.30
2022-10-04T03:49:51.011Z,80.37
2022-10-04T03:50:54.673Z,80.36
2022-10-04T03:51:58.460Z,80.26
2022-10-04T03:53:04.845Z,80.28
2022-10-04T03:54:11.129Z,80.39
2022-10-04T03:55:15.886Z,80.44
2022-10-04T03:56:28.019Z,80.54
2022-10-04T03:57:32.098Z,80.60
2022-10-04T03:58:35.834Z,80.50
2022-10-04T03:59:39.565Z,80.42
2022-10-04T04:00:54.827Z,80.39
2022-10-04T04:02:10.756Z,80.31
2022-10-04T04:03:17.185Z,80.29
2022-10-04T04:04:48.981Z,80.38
2022-10-04T04:05:58.935Z,80.48
2022-10-04T04:07:08.075Z,80.57
2022-10-04T04:08:29.478Z,80.48
2022-10-04T04:09:47.521Z,80.48
2022-10-04T04:10:54.151Z,80.57
2022-10-04T04:11:59.469Z,80.64
2022-10-04T04:13:05.937Z,80.56
2022-10-04T04:14:18.011Z,80.57
2022-10-04T04:15:21.359Z,80.60
2022-10-04T04:16:25.628Z,80.65
2022-10-04T04:17:40.297Z,80.45
2022-10-04T04:18:45.819Z,80.34
2022-10-04T04:19:48.671Z,80.16
2022-10-04T04:20:56.279Z,80.16
2022-10-04T04:21:59.437Z,80.14
2022-10-04T04:23:05.675Z,79.91
2022-10-04T04:24:23.081Z,79.78
2022-10-04T04:25:27.731Z,79.87
2022-10-04T04:26:49.201Z,80.16
2022-10-04T04:27:55.493Z,80.20
2022-10-04T04:29:13.734Z,80.46
2022-10-04T04:30:18.303Z,80.68
2022-10-04T04:31:27.454Z,80.90
2022-10-04T04:33:59.901Z,81.18
2022-10-04T04:35:09.706Z,81.20
2022-10-04T04:36:16.726Z,81.34
2022-10-04T04:37:20.155Z,81.53
2022-10-04T04:38:25.214Z,81.63
2022-10-04T04:39:44.380Z,81.86
2022-10-04T04:40:47.611Z,81.89
2022-10-04T04:41:51.029Z,81.99
2022-10-04T04:42:58.297Z,82.08
2022-10-04T04:44:01.836Z,82.14
2022-10-04T04:45:17.826Z,82.21
2022-10-04T04:46:27.692Z,82.27
2022-10-04T04:47:46.341Z,82.41
2022-10-04T04:48:52.851Z,82.44
2022-10-04T04:49:58.399Z,82.58
2022-10-04T04:51:01.845Z,82.80
2022-10-04T04:52:05.512Z,82.66
2022-10-04T04:53:17.827Z,82.74
2022-10-04T04:54:23.550Z,82.64
2022-10-04T04:55:36.740Z,82.77
2022-10-04T04:56:35.255Z,82.83
2022-10-04T04:57:39.380Z,82.98
2022-10-04T04:58:46.088Z,82.90
2022-10-04T04:59:52.499Z,82.99
2022-10-04T05:01:01.153Z,83.04
2022-10-04T05:02:04.415Z,82.96
2022-10-04T05:03:11.428Z,82.91
2022-10-04T05:04:18.035Z,83.01
2022-10-04T05:05:24.677Z,82.99
2022-10-04T05:06:29.848Z,83.02
2022-10-04T05:07:32.693Z,82.98
2022-10-04T05:08:41.261Z,82.92
2022-10-04T05:09:41.691Z,82.95
2022-10-04T05:11:07.414Z,83.00
2022-10-04T05:13:54.121Z,83.04
2022-10-04T05:14:57.180Z,82.92
2022-10-04T05:16:01.583Z,82.92
2022-10-04T05:17:05.913Z,82.98
2022-10-04T05:18:20.893Z,82.92
2022-10-04T05:19:29.104Z,82.97
2022-10-04T05:20:34.047Z,82.94
2022-10-04T05:21:42.620Z,82.92
2022-10-04T05:22:46.877Z,82.93
2022-10-04T05:23:51.255Z,82.87
2022-10-04T05:24:58.390Z,82.85
2022-10-04T05:26:04.072Z,82.86
2022-10-04T05:27:11.677Z,82.86
2022-10-04T05:28:15.537Z,82.75
2022-10-04T05:29:21.805Z,82.60
2022-10-04T05:30:49.510Z,82.52
2022-10-04T05:32:10.554Z,82.60
2022-10-04T05:33:16.226Z,82.76
2022-10-04T05:34:25.328Z,82.82
2022-10-04T05:35:29.673Z,82.98
2022-10-04T05:36:48.143Z,83.00
2022-10-04T05:38:00.515Z,83.08
2022-10-04T05:39:16.329Z,83.09
2022-10-04T05:40:31.307Z,83.12
2022-10-04T05:41:41.706Z,83.06
2022-10-04T05:42:46.660Z,83.12
2022-10-04T05:43:51.020Z,83.22
2022-10-04T05:44:56.311Z,83.29
2022-10-04T05:46:11.896Z,83.36
2022-10-04T05:47:16.024Z,83.37
2022-10-04T05:48:18.963Z,83.38
2022-10-04T05:49:25.003Z,83.43
2022-10-04T05:50:40.879Z,83.43
2022-10-04T05:51:52.791Z,83.39
2022-10-04T05:53:08.032Z,83.27
2022-10-04T05:54:10.776Z,83.31
2022-10-04T05:55:20.145Z,83.39
2022-10-04T05:56:32.269Z,83.45
2022-10-04T05:58:07.783Z,83.45
2022-10-04T05:59:19.944Z,83.52
2022-10-04T06:00:41.479Z,83.55
2022-10-04T06:01:54.305Z,83.60
2022-10-04T06:03:18.893Z,83.59
2022-10-04T06:04:42.106Z,83.58
2022-10-04T06:05:51.644Z,83.69
2022-10-04T06:07:13.251Z,83.62
2022-10-04T06:08:36.349Z,83.66
2022-10-04T06:09:57.747Z,83.65
2022-10-04T06:11:16.459Z,83.63
2022-10-04T06:14:17.519Z,83.65
2022-10-04T06:15:32.853Z,83.56
2022-10-04T06:16:48.435Z,83.65
2022-10-04T06:18:19.371Z,83.69
2022-10-04T06:19:26.715Z,83.85
2022-10-04T06:20:48.301Z,83.78
2022-10-04T06:22:13.156Z,83.78
2022-10-04T06:23:18.242Z,84.03
2022-10-04T06:24:27.723Z,83.88
2022-10-04T06:25:40.058Z,83.85
2022-10-04T06:26:50.487Z,83.94
2022-10-04T06:28:05.689Z,84.00
2022-10-04T06:29:12.248Z,84.09
2022-10-04T06:30:18.210Z,84.07
2022-10-04T06:31:40.043Z,84.07
2022-10-04T06:32:55.107Z,84.07
2022-10-04T06:35:30.454Z,84.03
2022-10-04T06:36:39.673Z,84.01
2022-10-04T06:38:00.309Z,84.07
2022-10-04T06:39:24.552Z,84.03
2022-10-04T06:40:39.955Z,83.99
2022-10-04T06:41:52.354Z,84.06
2022-10-04T06:43:11.590Z,83.94
2022-10-04T06:44:24.176Z,83.98
2022-10-04T06:46:03.661Z,83.94
2022-10-04T06:47:25.475Z,84.00
2022-10-04T06:48:46.926Z,84.06
2022-10-04T06:49:57.077Z,84.15
2022-10-04T06:51:16.069Z,84.03
2022-10-04T06:52:57.980Z,84.01
2022-10-04T06:54:04.628Z,84.08
2022-10-04T06:55:31.529Z,84.10
2022-10-04T06:56:56.124Z,84.15
2022-10-04T06:58:20.718Z,84.14
2022-10-04T06:59:48.212Z,84.10
2022-10-04T07:01:00.678Z,84.15
2022-10-04T07:02:10.821Z,84.07
2022-10-04T07:03:39.936Z,84.12
2022-10-04T07:06:01.200Z,84.27
2022-10-04T07:07:33.812Z,84.41
2022-10-04T07:08:43.107Z,84.33
2022-10-04T07:09:47.309Z,84.28
2022-10-04T07:10:55.847Z,84.12
2022-10-04T07:12:02.302Z,84.13
2022-10-04T07:13:24.001Z,84.01
2022-10-04T07:15:44.519Z,84.05
2022-10-04T07:16:51.180Z,83.85
2022-10-04T07:17:58.060Z,83.73
2022-10-04T07:19:10.606Z,83.69
2022-10-04T07:21:37.603Z,83.68
2022-10-04T07:22:47.198Z,83.46
2022-10-04T07:24:01.118Z,83.47
2022-10-04T07:25:16.506Z,83.50
2022-10-04T07:26:23.530Z,83.54
2022-10-04T07:27:36.045Z,83.56
2022-10-04T07:29:00.861Z,83.68
2022-10-04T07:30:10.130Z,83.72
2022-10-04T07:31:16.873Z,83.82
2022-10-04T07:32:29.252Z,83.83
2022-10-04T07:33:35.651Z,83.73
2022-10-04T07:34:51.227Z,83.78
2022-10-04T07:35:57.665Z,83.87
2022-10-04T07:37:04.168Z,83.92
2022-10-04T07:38:10.616Z,83.89
2022-10-04T07:39:17.452Z,83.83
2022-10-04T07:40:36.263Z,83.91
2022-10-04T07:41:54.342Z,83.90
2022-10-04T07:43:00.841Z,83.83
2022-10-04T07:44:16.274Z,83.63
2022-10-04T07:45:32.101Z,83.42
2022-10-04T07:46:47.375Z,83.32
2022-10-04T07:47:50.336Z,83.33
2022-10-04T07:48:53.832Z,83.34
2022-10-04T07:49:57.908Z,83.18
2022-10-04T07:51:20.767Z,83.07
2022-10-04T07:52:33.178Z,82.92
2022-10-04T07:53:48.621Z,82.94
2022-10-04T07:55:14.612Z,82.71
2022-10-04T07:56:20.854Z,82.47
2022-10-04T07:57:39.191Z,82.46
2022-10-04T07:58:48.685Z,82.48
2022-10-04T07:59:57.850Z,82.27
2022-10-04T08:04:13.104Z,81.26
2022-10-04T08:05:25.364Z,81.27
2022-10-04T08:08:07.956Z,81.02
2022-10-04T08:09:26.534Z,80.94
2022-10-04T08:11:04.754Z,80.86
2022-10-04T08:12:29.476Z,80.79
2022-10-04T08:13:56.878Z,80.62
2022-10-04T08:15:15.403Z,80.47
2022-10-04T08:16:23.172Z,80.14
2022-10-04T08:17:46.312Z,79.97
2022-10-04T08:19:12.106Z,80.07
2022-10-04T08:20:33.661Z,79.99
2022-10-04T08:21:48.992Z,80.04
2022-10-04T08:23:21.118Z,79.93
2022-10-04T08:24:57.727Z,79.73
2022-10-04T08:26:37.737Z,79.61
2022-10-04T08:28:28.254Z,79.66
2022-10-04T08:29:43.524Z,79.59
2022-10-04T08:31:02.247Z,79.63
2022-10-04T08:32:08.699Z,79.65
2022-10-04T08:33:30.740Z,79.75
2022-10-04T08:34:46.218Z,79.78
2022-10-04T08:35:55.688Z,79.76
2022-10-04T08:37:02.610Z,79.71
2022-10-04T08:38:28.841Z,79.66
2022-10-04T08:39:47.335Z,79.61
2022-10-04T08:41:08.895Z,79.38
2022-10-04T08:42:18.149Z,79.10
2022-10-04T08:43:55.509Z,79.12
2022-10-04T08:45:07.968Z,79.00
2022-10-04T08:46:40.475Z,78.77
2022-10-04T08:48:02.327Z,78.84
2022-10-04T08:49:17.390Z,78.89
2022-10-04T08:50:26.886Z,78.82
2022-10-04T08:51:36.495Z,78.90
2022-10-04T08:52:58.608Z,78.88
2022-10-04T08:54:39.702Z,78.82
2022-10-04T08:55:44.318Z,78.77
2022-10-04T08:57:08.614Z,78.68
2022-10-04T08:58:41.235Z,78.71
2022-10-04T09:00:14.913Z,78.88
2022-10-04T09:01:30.608Z,78.83
2022-10-04T09:02:53.709Z,78.90
2022-10-04T09:04:20.250Z,79.04
2022-10-04T09:05:35.605Z,79.10
2022-10-04T09:07:00.547Z,79.19
2022-10-04T09:08:22.227Z,79.31
2022-10-04T09:09:49.714Z,79.39
2022-10-04T09:11:05.135Z,79.30
2022-10-04T09:12:11.561Z,79.06
2022-10-04T09:13:34.756Z,78.78
2022-10-04T09:14:56.073Z,78.68
2022-10-04T09:16:17.598Z,78.62
2022-10-04T09:17:39.026Z,78.57
2022-10-04T09:18:59.890Z,78.29
2022-10-04T09:20:37.343Z,78.02
2022-10-04T09:21:37.585Z,77.65
2022-10-04T09:23:04.081Z,77.48
2022-10-04T09:24:28.797Z,77.09
2022-10-04T09:25:41.271Z,76.90
2022-10-04T09:26:53.823Z,76.71
2022-10-04T09:28:12.186Z,76.45
2022-10-04T09:29:27.421Z,76.39
2022-10-04T09:31:08.955Z,76.22
2022-10-04T09:32:27.297Z,76.04
2022-10-04T09:33:33.766Z,75.76
2022-10-04T09:35:03.168Z,75.66
2022-10-04T09:36:12.673Z,75.33
2022-10-04T09:37:38.752Z,75.16
2022-10-04T09:39:25.573Z,75.05
2022-10-04T09:40:47.342Z,74.51
2022-10-04T09:42:21.827Z,74.04
2022-10-04T09:43:31.267Z,73.88
2022-10-04T09:45:01.797Z,73.66
2022-10-04T09:46:23.844Z,73.46
2022-10-04T09:47:45.273Z,73.02
2022-10-04T09:49:06.756Z,72.86
2022-10-04T09:50:30.635Z,72.75
2022-10-04T09:52:08.412Z,72.63
2022-10-04T09:53:24.163Z,72.21
2022-10-04T09:54:49.295Z,71.89
2022-10-04T09:56:04.719Z,71.00
2022-10-04T09:57:29.410Z,70.67
2022-10-04T09:58:45.794Z,70.28
2022-10-04T09:59:58.279Z,70.07
2022-10-04T10:01:11.054Z,69.93
2022-10-04T10:02:33.081Z,69.82
2022-10-04T10:04:14.690Z,69.85
2022-10-04T10:05:29.804Z,69.63
2022-10-04T10:06:42.349Z,69.84
2022-10-04T10:08:10.567Z,69.81
2022-10-04T10:09:18.049Z,69.66
2022-10-04T10:10:45.640Z,69.58
2022-10-04T10:12:16.254Z,69.32
2022-10-04T10:13:39.710Z,68.61
2022-10-04T10:14:59.567Z,68.05
2022-10-04T10:16:24.204Z,67.06
2022-10-04T10:17:49.254Z,66.51
2022-10-04T10:19:14.185Z,66.27
2022-10-04T10:20:46.123Z,66.05
2022-10-04T10:22:10.400Z,65.91
2022-10-04T10:23:40.648Z,65.47
2022-10-04T10:25:20.365Z,65.36
2022-10-04T10:26:32.626Z,65.45
2022-10-04T10:28:01.800Z,65.26
2022-10-04T10:29:14.412Z,64.85
2022-10-04T10:30:26.778Z,64.17
2022-10-04T10:31:53.529Z,63.62
2022-10-04T10:33:20.885Z,63.41
2022-10-04T10:34:44.068Z,62.85
2022-10-04T10:36:02.338Z,62.61
2022-10-04T10:37:24.460Z,62.36
2022-10-04T10:38:40.059Z,62.30
2022-10-04T10:40:16.233Z,61.99
2022-10-04T10:41:55.699Z,61.77
2022-10-04T10:43:17.965Z,61.48
2022-10-04T10:44:33.995Z,61.27
2022-10-04T10:45:49.384Z,61.08
2022-10-04T10:47:21.430Z,60.95
2022-10-04T10:48:33.296Z,60.47
2022-10-04T10:49:43.738Z,60.20
2022-10-04T10:51:22.376Z,60.05
2022-10-04T10:52:59.043Z,60.07
2022-10-04T10:54:22.351Z,60.12
2022-10-04T10:55:40.938Z,59.96
2022-10-04T10:57:10.262Z,59.83
2022-10-04T10:58:26.382Z,59.58
2022-10-04T10:59:56.555Z,59.54
2022-10-04T11:01:03.176Z,59.77
2022-10-04T11:02:51.746Z,59.55
2022-10-04T11:04:28.194Z,59.59
2022-10-04T11:05:37.726Z,59.40
2022-10-04T11:07:03.495Z,59.00
2022-10-04T11:08:19.319Z,58.94
2022-10-04T11:09:43.945Z,58.92
2022-10-04T11:10:52.050Z,58.95
2022-10-04T11:12:33.652Z,58.42
2022-10-04T11:14:02.775Z,58.27
2022-10-04T11:15:26.334Z,58.23
2022-10-04T11:16:49.159Z,58.21
2022-10-04T11:18:01.744Z,57.89
2022-10-04T11:19:19.715Z,57.78
2022-10-04T11:20:59.811Z,57.79
2022-10-04T11:22:23.488Z,57.73
2022-10-04T11:23:52.340Z,57.65
2022-10-04T11:25:01.840Z,57.66
2022-10-04T11:26:42.020Z,57.40
2022-10-04T11:27:57.811Z,57.26
2022-10-04T11:29:23.944Z,57.08
2022-10-04T11:30:42.287Z,57.24
2022-10-04T11:31:54.667Z,57.21
2022-10-04T11:33:25.580Z,57.25
2022-10-04T11:34:50.349Z,57.41
2022-10-04T11:36:12.201Z,57.42
2022-10-04T11:37:26.517Z,57.46
2022-10-04T11:38:49.824Z,57.54
2022-10-04T11:40:08.808Z,57.47
2022-10-04T11:43:12.569Z,57.42
2022-10-04T11:44:29.992Z,57.36
2022-10-04T11:45:37.717Z,57.15
2022-10-04T11:46:53.114Z,57.17
2022-10-04T11:48:14.708Z,56.97
2022-10-04T11:49:55.987Z,56.82
2022-10-04T11:51:08.629Z,56.60
2022-10-04T11:52:40.996Z,56.26
2022-10-04T11:54:13.153Z,56.21
2022-10-04T11:55:23.752Z,56.09
2022-10-04T11:56:48.624Z,56.11
2022-10-04T11:58:01.607Z,56.05
2022-10-04T11:59:38.319Z,56.05
2022-10-04T12:01:00.396Z,56.02
2022-10-04T12:02:23.667Z,55.89
2022-10-04T12:03:36.051Z,55.75
2022-10-04T12:05:00.702Z,55.32
2022-10-04T12:06:09.945Z,54.99
2022-10-04T12:07:42.031Z,54.98
2022-10-04T12:09:02.170Z,55.22
2022-10-04T12:10:17.517Z,55.15
2022-10-04T12:12:09.194Z,54.99
2022-10-04T12:13:19.114Z,55.00
2022-10-04T12:14:45.286Z,55.11
2022-10-04T12:16:03.792Z,55.28
2022-10-04T12:17:37.826Z,55.43
2022-10-04T12:18:59.468Z,55.56
2022-10-04T12:20:40.866Z,55.77
2022-10-04T12:22:00.059Z,55.72
2022-10-04T12:23:10.744Z,55.62
2022-10-04T12:24:47.106Z,55.79
2022-10-04T12:25:57.843Z,55.77
2022-10-04T12:27:16.417Z,55.82
2022-10-04T12:28:57.779Z,55.92
2022-10-04T12:30:20.689Z,56.01
2022-10-04T12:31:30.437Z,56.17
2022-10-04T12:32:40.078Z,56.28
2022-10-04T12:33:53.574Z,56.29
2022-10-04T12:35:08.867Z,56.23
2022-10-04T12:36:32.306Z,56.20
2022-10-04T12:37:41.470Z,56.15
2022-10-04T12:38:54.033Z,56.26
2022-10-04T12:40:21.652Z,56.24
2022-10-04T12:41:55.205Z,56.24
2022-10-04T12:43:30.408Z,56.32
2022-10-04T12:44:56.512Z,56.13
2022-10-04T12:46:31.405Z,55.77
2022-10-04T12:47:52.780Z,55.80
2022-10-04T12:49:02.724Z,55.96
2022-10-04T12:50:18.362Z,55.97
2022-10-04T12:51:30.701Z,55.97
2022-10-04T12:52:46.074Z,55.79
2022-10-04T12:53:58.733Z,55.74
2022-10-04T12:55:26.369Z,55.70
2022-10-04T12:56:45.162Z,55.72
2022-10-04T12:57:55.005Z,55.66
2022-10-04T12:59:07.462Z,55.74
2022-10-04T13:00:24.456Z,55.83
2022-10-04T13:01:33.981Z,55.88
2022-10-04T13:03:01.941Z,55.97
2022-10-04T13:04:20.114Z,56.01
2022-10-04T13:05:32.513Z,55.93
2022-10-04T13:06:53.714Z,55.88
2022-10-04T13:08:19.025Z,55.62
2022-10-04T13:09:28.349Z,55.65
2022-10-04T13:10:35.036Z,55.58
2022-10-04T13:12:05.754Z,55.58
2022-10-04T13:13:30.589Z,55.43
2022-10-04T13:14:40.899Z,55.01
2022-10-04T13:18:24.407Z,54.40
2022-10-04T13:19:52.578Z,54.26
2022-10-04T13:21:18.764Z,54.11
2022-10-04T13:22:56.359Z,54.02
2022-10-04T13:24:05.484Z,54.09
2022-10-04T13:25:20.390Z,54.25
2022-10-04T13:26:27.004Z,54.34
2022-10-04T13:27:50.764Z,54.41
2022-10-04T13:29:25.691Z,54.30
2022-10-04T13:30:44.455Z,54.33
2022-10-04T13:31:53.866Z,54.36
2022-10-04T13:33:16.742Z,54.23
2022-10-04T13:34:38.193Z,54.02
2022-10-04T13:35:58.314Z,53.68
2022-10-04T13:37:07.619Z,53.62
2022-10-04T13:38:32.386Z,53.42
2022-10-04T13:40:00.029Z,53.24
2022-10-04T13:41:21.683Z,53.09
2022-10-04T13:42:53.696Z,53.03
2022-10-04T13:44:09.345Z,53.06
2022-10-04T13:45:34.850Z,52.97
2022-10-04T13:46:51.665Z,52.89
2022-10-04T13:48:16.992Z,53.12
2022-10-04T13:49:24.082Z,53.18
2022-10-04T13:50:30.554Z,53.37
2022-10-04T13:51:55.260Z,53.47
2022-10-04T13:53:44.354Z,53.53
2022-10-04T13:55:28.714Z,53.41
2022-10-04T13:56:39.459Z,53.40
2022-10-04T13:57:44.446Z,53.69
2022-10-04T13:59:02.639Z,53.81
2022-10-04T14:00:14.656Z,53.87
2022-10-04T14:01:37.648Z,54.09
2022-10-04T14:02:50.060Z,54.33
2022-10-04T14:04:11.357Z,54.34
2022-10-04T14:05:38.922Z,54.39
2022-10-04T14:07:13.070Z,54.47
2022-10-04T14:08:36.255Z,54.38
2022-10-04T14:09:57.353Z,54.54
2022-10-04T14:11:38.991Z,54.67
2022-10-04T14:12:51.274Z,54.67
2022-10-04T14:14:01.164Z,54.82
2022-10-04T14:15:37.611Z,54.92
2022-10-04T14:17:09.938Z,55.00
2022-10-04T14:18:33.020Z,55.16
2022-10-04T14:20:05.722Z,55.42
2022-10-04T14:21:30.859Z,55.52
2022-10-04T14:22:43.733Z,55.73
2022-10-04T14:24:11.520Z,56.02
2022-10-04T14:25:51.196Z,56.23
2022-10-04T14:27:03.615Z,56.37
2022-10-04T14:28:34.380Z,56.58
2022-10-04T14:30:00.212Z,56.80
2022-10-04T14:31:41.774Z,57.00
2022-10-04T14:33:10.702Z,57.13
2022-10-04T14:34:47.331Z,57.26
2022-10-04T14:35:56.320Z,57.46
2022-10-04T14:37:22.527Z,57.68
2022-10-04T14:38:38.057Z,57.80
2022-10-04T14:40:11.757Z,57.88
2022-10-04T14:41:49.353Z,57.95
2022-10-04T14:43:01.545Z,58.00
2022-10-04T14:44:30.170Z,58.18
2022-10-04T14:45:45.549Z,58.15
2022-10-04T14:46:58.064Z,58.20
2022-10-04T14:48:18.237Z,58.21
2022-10-04T14:49:30.723Z,58.21
2022-10-04T14:50:57.100Z,58.32
2022-10-04T14:52:08.175Z,58.30
2022-10-04T14:53:15.719Z,58.43
2022-10-04T14:54:25.009Z,58.50
2022-10-04T14:56:00.212Z,58.51
2022-10-04T14:57:12.892Z,58.60
2022-10-04T14:58:42.870Z,58.46
2022-10-04T15:00:10.157Z,58.44
2022-10-04T15:01:27.206Z,58.45
2022-10-04T15:02:33.888Z,58.43
2022-10-04T15:03:57.036Z,58.47
2022-10-04T15:05:07.680Z,58.33
2022-10-04T15:06:19.170Z,58.13
2022-10-04T15:07:26.051Z,58.17
2022-10-04T15:08:38.697Z,58.09
2022-10-04T15:09:54.166Z,58.08
2022-10-04T15:11:09.127Z,57.97
2022-10-04T15:12:58.408Z,57.67
2022-10-04T15:13:56.097Z,57.64
2022-10-04T15:15:14.277Z,57.46
2022-10-04T15:16:45.475Z,57.38
2022-10-04T15:17:55.395Z,57.45
2022-10-04T15:19:11.636Z,57.40
2022-10-04T15:20:33.822Z,57.31
2022-10-04T15:21:46.324Z,57.39
2022-10-04T15:22:56.587Z,57.44
2022-10-04T15:24:18.003Z,57.44
2022-10-04T15:25:45.005Z,57.34
2022-10-04T15:26:51.389Z,57.28
2022-10-04T15:27:57.063Z,57.30
2022-10-04T15:29:09.460Z,57.29
2022-10-04T15:30:29.990Z,57.20
2022-10-04T15:33:01.725Z,57.12
2022-10-04T15:34:34.011Z,57.06
2022-10-04T15:35:40.450Z,57.06
2022-10-04T15:36:53.902Z,57.06
2022-10-04T15:38:16.915Z,56.98
2022-10-04T15:39:42.648Z,56.84
2022-10-04T15:41:04.277Z,56.93
2022-10-04T15:42:16.841Z,56.81
2022-10-04T15:43:35.816Z,56.88
2022-10-04T15:44:58.777Z,57.02
2022-10-04T15:46:12.145Z,57.07
2022-10-04T15:47:41.423Z,57.02
2022-10-04T15:49:12.139Z,57.01
2022-10-04T15:52:02.658Z,57.19
2022-10-04T15:53:24.001Z,57.19
2022-10-04T15:54:36.547Z,57.45
2022-10-04T15:56:02.986Z,57.51
2022-10-04T15:57:18.915Z,57.59
2022-10-04T15:58:27.883Z,57.59
2022-10-04T15:59:38.493Z,57.62
2022-10-04T16:00:48.434Z,57.65
2022-10-04T16:02:09.899Z,57.74
2022-10-04T16:03:26.528Z,57.77
2022-10-04T16:04:47.975Z,57.87
2022-10-04T16:06:14.322Z,57.99
2022-10-04T16:07:32.615Z,58.15
2022-10-04T16:08:42.362Z,58.19
2022-10-04T16:10:09.708Z,58.26
2022-10-04T16:11:19.477Z,58.28
2022-10-04T16:12:32.562Z,58.48
2022-10-04T16:13:48.043Z,58.42
2022-10-04T16:15:20.139Z,58.52
2022-10-04T16:16:41.582Z,58.57
2022-10-04T16:17:53.117Z,58.69
2022-10-04T16:19:31.332Z,58.78
2022-10-04T16:20:38.162Z,58.78
2022-10-04T16:21:53.279Z,58.84
2022-10-04T16:23:23.637Z,58.90
2022-10-04T16:24:30.313Z,58.94
2022-10-04T16:25:38.231Z,59.00
2022-10-04T16:26:45.428Z,59.08
2022-10-04T16:28:05.650Z,59.20
2022-10-04T16:29:29.261Z,59.20
2022-10-04T16:30:45.009Z,59.21
2022-10-04T16:31:54.285Z,59.29
2022-10-04T16:33:06.566Z,59.37
2022-10-04T16:34:21.972Z,59.50
2022-10-04T16:35:43.560Z,59.36
2022-10-04T16:36:56.212Z,59.41